createdAt,value
2023-02-14T00:00:47.100Z,57.96
2023-02-14T00:03:13.489Z,57.97
2023-02-14T00:05:39.923Z,57.81
2023-02-14T00:08:06.301Z,57.93
2023-02-14T00:10:32.720Z,58.70
2023-02-14T00:12:59.119Z,58.60
2023-02-14T00:15:25.555Z,58.60
2023-02-14T00:17:51.987Z,58.88
2023-02-14T00:20:18.389Z,59.11
2023-02-14T00:22:44.802Z,59.37
2023-02-14T00:25:11.196Z,59.28
2023-02-14T00:27:37.598Z,59.39
2023-02-14T00:30:04.022Z,59.55
2023-02-14T00:32:30.480Z,59.53
2023-02-14T00:34:56.869Z,59.56
2023-02-14T00:37:23.237Z,59.86
2023-02-14T00:39:49.625Z,59.69
2023-02-14T00:42:16.010Z,59.93
2023-02-14T00:44:42.389Z,59.77
2023-02-14T00:47:08.780Z,59.75
2023-02-14T00:49:37.895Z,59.98
2023-02-14T00:52:05.382Z,59.83
2023-02-14T00:54:31.755Z,59.84
2023-02-14T00:56:58.184Z,59.81
2023-02-14T00:59:24.622Z,59.46
2023-02-14T01:01:51.000Z,59.78
2023-02-14T01:04:17.391Z,59.63
2023-02-14T01:06:43.778Z,59.79
2023-02-14T01:09:10.170Z,59.55
2023-02-14T01:11:36.552Z,60.12
2023-02-14T01:14:04.065Z,60.56
2023-02-14T01:16:30.486Z,61.92
2023-02-14T01:18:56.945Z,63.16
2023-02-14T01:21:23.351Z,63.63
2023-02-14T01:23:49.731Z,62.46
2023-02-14T01:26:16.169Z,62.23
2023-02-14T01:28:42.588Z,62.78
2023-02-14T01:31:08.993Z,62.38
2023-02-14T01:33:35.389Z,62.38
2023-02-14T01:36:01.752Z,62.52
2023-02-14T01:38:28.133Z,62.36
2023-02-14T01:40:54.599Z,62.34
2023-02-14T01:43:21.015Z,62.19
2023-02-14T01:45:47.405Z,61.96
2023-02-14T01:48:13.792Z,62.18
2023-02-14T01:50:40.189Z,61.86
2023-02-14T01:53:06.622Z,61.11
2023-02-14T01:55:33.022Z,61.37
2023-02-14T01:57:59.409Z,62.01
2023-02-14T02:00:25.831Z,61.32
2023-02-14T02:02:52.217Z,61.36
2023-02-14T02:05:18.595Z,61.14
2023-02-14T02:07:44.990Z,61.58
2023-02-14T02:10:11.368Z,61.57
2023-02-14T02:12:37.754Z,61.53
2023-02-14T02:15:04.125Z,62.63
2023-02-14T02:17:30.554Z,61.53
2023-02-14T02:19:56.923Z,62.18
2023-02-14T02:22:23.318Z,62.12
2023-02-14T02:24:49.790Z,62.32
2023-02-14T02:27:16.206Z,63.27
2023-02-14T02:29:42.616Z,63.37
2023-02-14T02:32:09.115Z,63.78
2023-02-14T02:34:35.567Z,62.78
2023-02-14T02:37:01.936Z,62.62
2023-02-14T02:39:28.316Z,62.28
2023-02-14T02:41:54.678Z,61.59
2023-02-14T02:44:21.031Z,61.20
2023-02-14T02:46:47.424Z,61.09
2023-02-14T02:49:16.989Z,61.24
2023-02-14T02:51:43.405Z,62.00
2023-02-14T02:54:09.809Z,61.98
2023-02-14T02:56:36.214Z,61.93
2023-02-14T02:59:02.633Z,62.74
2023-02-14T03:01:29.064Z,63.13
2023-02-14T03:03:55.508Z,63.22
2023-02-14T03:06:21.878Z,63.41
2023-02-14T03:08:48.293Z,62.98
2023-02-14T03:11:14.704Z,62.69
2023-02-14T03:13:41.090Z,62.36
2023-02-14T03:16:07.523Z,62.25
2023-02-14T03:18:33.934Z,62.15
2023-02-14T03:21:00.601Z,62.08
2023-02-14T03:23:27.211Z,61.98
2023-02-14T03:25:53.582Z,62.00
2023-02-14T03:28:20.037Z,61.96
2023-02-14T03:30:46.512Z,61.93
2023-02-14T03:33:12.965Z,61.58
2023-02-14T03:35:39.352Z,61.74
2023-02-14T03:38:05.735Z,61.56
2023-02-14T03:40:32.182Z,61.80
2023-02-14T03:42:58.573Z,64.12
2023-02-14T03:45:25.049Z,63.60
2023-02-14T03:47:51.442Z,62.17
2023-02-14T03:50:17.911Z,62.15
2023-02-14T03:52:44.325Z,61.84
2023-02-14T03:55:10.815Z,63.57
2023-02-14T03:57:37.310Z,63.08
2023-02-14T04:00:03.685Z,65.35
2023-02-14T04:02:30.090Z,65.89
2023-02-14T04:04:56.458Z,64.50
2023-02-14T04:07:22.848Z,63.80
2023-02-14T04:09:49.235Z,64.52
2023-02-14T04:12:16.932Z,65.20
2023-02-14T04:14:44.641Z,64.95
2023-02-14T04:17:11.036Z,64.36
2023-02-14T04:19:37.471Z,64.23
2023-02-14T04:22:03.886Z,64.02
2023-02-14T04:24:32.669Z,63.87
2023-02-14T04:26:59.096Z,64.10
2023-02-14T04:29:25.494Z,64.09
2023-02-14T04:31:51.979Z,64.09
2023-02-14T04:34:19.853Z,64.12
2023-02-14T04:36:46.248Z,63.70
2023-02-14T04:39:12.629Z,63.50
2023-02-14T04:41:39.042Z,63.07
2023-02-14T04:44:05.440Z,62.55
2023-02-14T04:46:31.884Z,62.21
2023-02-14T04:48:58.332Z,61.95
2023-02-14T04:51:27.306Z,61.99
2023-02-14T04:53:53.934Z,61.65
2023-02-14T04:56:20.326Z,62.87
2023-02-14T04:58:49.052Z,63.89
2023-02-14T05:01:15.485Z,65.48
2023-02-14T05:03:41.974Z,66.67
2023-02-14T05:06:08.341Z,66.58
2023-02-14T05:08:34.760Z,65.38
2023-02-14T05:11:01.373Z,64.97
2023-02-14T05:13:27.871Z,64.77
2023-02-14T05:15:54.421Z,65.45
2023-02-14T05:18:20.824Z,65.40
2023-02-14T05:20:47.179Z,65.75
2023-02-14T05:23:13.734Z,65.36
2023-02-14T05:25:40.211Z,65.33
2023-02-14T05:28:06.676Z,64.97
2023-02-14T05:30:33.182Z,65.54
2023-02-14T05:32:59.624Z,65.38
2023-02-14T05:35:26.040Z,65.85
2023-02-14T05:37:52.437Z,66.16
2023-02-14T05:40:18.827Z,66.01
2023-02-14T05:42:45.211Z,65.64
2023-02-14T05:45:12.994Z,65.65
2023-02-14T05:47:39.384Z,65.16
2023-02-14T05:50:05.766Z,64.34
2023-02-14T05:52:32.166Z,63.61
2023-02-14T05:54:58.572Z,62.82
2023-02-14T05:57:24.981Z,62.35
2023-02-14T05:59:51.394Z,61.84
2023-02-14T06:02:17.864Z,61.80
2023-02-14T06:04:44.324Z,63.90
2023-02-14T06:07:10.726Z,65.27
2023-02-14T06:09:37.135Z,65.56
2023-02-14T06:12:03.627Z,66.00
2023-02-14T06:14:30.050Z,66.82
2023-02-14T06:16:56.534Z,66.35
2023-02-14T06:19:22.986Z,65.50
2023-02-14T06:21:49.359Z,65.67
2023-02-14T06:24:15.738Z,65.18
2023-02-14T06:26:42.142Z,65.26
2023-02-14T06:29:08.531Z,65.60
2023-02-14T06:31:34.993Z,65.43
2023-02-14T06:34:01.447Z,65.23
2023-02-14T06:36:27.841Z,65.08
2023-02-14T06:38:54.202Z,65.15
2023-02-14T06:41:20.570Z,65.10
2023-02-14T06:43:46.967Z,65.16
2023-02-14T06:46:13.337Z,65.04
2023-02-14T06:48:39.728Z,64.82
2023-02-14T06:51:06.103Z,64.48
2023-02-14T06:53:32.483Z,64.18
2023-02-14T06:55:58.889Z,64.42
2023-02-14T06:58:25.286Z,64.93
2023-02-14T07:00:51.671Z,67.32
2023-02-14T07:03:18.024Z,66.05
2023-02-14T07:05:44.421Z,65.29
2023-02-14T07:08:10.800Z,64.83
2023-02-14T07:10:37.208Z,64.52
2023-02-14T07:13:03.591Z,63.80
2023-02-14T07:15:30.068Z,63.61
2023-02-14T07:17:56.473Z,63.74
2023-02-14T07:20:22.859Z,63.10
2023-02-14T07:22:49.289Z,64.02
2023-02-14T07:25:15.715Z,63.40
2023-02-14T07:27:42.175Z,64.51
2023-02-14T07:30:08.645Z,64.62
2023-02-14T07:32:35.095Z,64.33
2023-02-14T07:35:01.472Z,64.26
2023-02-14T07:37:27.854Z,64.11
2023-02-14T07:39:54.338Z,63.73
2023-02-14T07:42:20.706Z,62.87
2023-02-14T07:44:47.088Z,62.53
2023-02-14T07:47:13.450Z,62.00
2023-02-14T07:49:39.867Z,61.87
2023-02-14T07:52:06.243Z,62.85
2023-02-14T07:54:32.605Z,64.31
2023-02-14T07:56:58.994Z,65.03
2023-02-14T07:59:26.131Z,65.27
2023-02-14T08:01:52.680Z,64.19
2023-02-14T08:04:19.127Z,63.36
2023-02-14T08:06:45.518Z,63.50
2023-02-14T08:09:11.933Z,63.04
2023-02-14T08:11:38.357Z,62.77
2023-02-14T08:14:04.783Z,63.48
2023-02-14T08:16:31.254Z,63.54
2023-02-14T08:18:57.672Z,63.12
2023-02-14T08:21:24.060Z,62.85
2023-02-14T08:23:50.442Z,63.27
2023-02-14T08:26:16.854Z,63.65
2023-02-14T08:28:43.220Z,64.59
2023-02-14T08:31:09.629Z,66.29
2023-02-14T08:33:36.023Z,66.78
2023-02-14T08:36:02.431Z,66.82
2023-02-14T08:38:28.806Z,66.91
2023-02-14T08:40:55.176Z,67.16
2023-02-14T08:43:21.546Z,68.46
2023-02-14T08:45:47.937Z,67.66
2023-02-14T08:48:14.339Z,67.99
2023-02-14T08:50:40.740Z,67.66
2023-02-14T08:53:07.142Z,67.59
2023-02-14T08:55:33.531Z,66.86
2023-02-14T08:57:59.954Z,68.08
2023-02-14T09:00:26.423Z,69.05
2023-02-14T09:02:52.840Z,69.21
2023-02-14T09:05:19.203Z,68.82
2023-02-14T09:07:45.594Z,69.36
2023-02-14T09:10:12.087Z,67.99
2023-02-14T09:12:38.478Z,67.16
2023-02-14T09:15:04.880Z,66.91
2023-02-14T09:17:31.305Z,67.92
2023-02-14T09:19:57.719Z,68.49
2023-02-14T09:22:24.113Z,68.08
2023-02-14T09:24:50.516Z,67.89
2023-02-14T09:27:16.894Z,67.84
2023-02-14T09:29:43.321Z,66.52
2023-02-14T09:32:09.771Z,65.46
2023-02-14T09:34:36.195Z,64.92
2023-02-14T09:37:03.216Z,64.35
2023-02-14T09:39:30.698Z,63.84
2023-02-14T09:41:57.083Z,63.33
2023-02-14T09:44:23.493Z,64.26
2023-02-14T09:46:49.893Z,64.12
2023-02-14T09:49:16.443Z,63.55
2023-02-14T09:51:42.877Z,62.44
2023-02-14T09:54:09.284Z,62.17
2023-02-14T09:56:50.385Z,61.45
2023-02-14T09:59:17.561Z,59.97
2023-02-14T10:01:43.941Z,61.32
2023-02-14T10:04:10.303Z,60.79
2023-02-14T10:06:36.729Z,61.06
2023-02-14T10:09:03.141Z,60.70
2023-02-14T10:11:29.499Z,60.62
2023-02-14T10:13:55.877Z,60.25
2023-02-14T10:16:22.372Z,60.38
2023-02-14T10:18:48.816Z,59.23
2023-02-14T10:21:15.246Z,58.88
2023-02-14T10:23:41.663Z,58.84
2023-02-14T10:26:08.079Z,59.25
2023-02-14T10:28:34.496Z,58.83
2023-02-14T10:31:01.288Z,59.05
2023-02-14T10:33:27.883Z,58.88
2023-02-14T10:35:54.250Z,60.17
2023-02-14T10:38:20.645Z,59.63
2023-02-14T10:40:47.027Z,57.88
2023-02-14T10:43:13.435Z,57.88
2023-02-14T10:45:39.855Z,58.99
2023-02-14T10:48:06.287Z,58.69
2023-02-14T10:50:32.703Z,57.11
2023-02-14T10:52:59.099Z,57.19
2023-02-14T10:55:33.031Z,57.44
2023-02-14T10:57:59.483Z,57.36
2023-02-14T11:00:25.865Z,56.23
2023-02-14T11:02:52.249Z,56.73
2023-02-14T11:05:18.674Z,56.26
2023-02-14T11:07:45.091Z,54.75
2023-02-14T11:10:11.483Z,54.64
2023-02-14T11:12:37.915Z,54.84
2023-02-14T11:15:04.386Z,55.73
2023-02-14T11:17:30.770Z,55.99
2023-02-14T11:19:57.194Z,54.80
2023-02-14T11:22:23.585Z,55.31
2023-02-14T11:24:49.967Z,56.04
2023-02-14T11:27:16.377Z,57.06
2023-02-14T11:29:42.736Z,55.20
2023-02-14T11:32:09.170Z,55.83
2023-02-14T11:34:35.568Z,55.70
2023-02-14T11:37:01.954Z,54.90
2023-02-14T11:39:28.352Z,53.97
2023-02-14T11:41:54.746Z,52.62
2023-02-14T11:44:21.150Z,52.88
2023-02-14T11:46:53.073Z,54.04
2023-02-14T11:49:20.112Z,54.15
2023-02-14T11:51:46.491Z,51.76
2023-02-14T11:54:12.910Z,52.18
2023-02-14T11:56:39.299Z,53.28
2023-02-14T11:59:05.849Z,51.15
2023-02-14T12:01:35.103Z,51.05
2023-02-14T12:04:01.554Z,50.61
2023-02-14T12:06:27.931Z,51.37
2023-02-14T12:08:54.302Z,51.13
2023-02-14T12:11:20.728Z,51.68
2023-02-14T12:13:47.109Z,49.88
2023-02-14T12:16:13.473Z,50.18
2023-02-14T12:18:39.867Z,50.53
2023-02-14T12:21:06.353Z,49.65
2023-02-14T12:23:32.775Z,48.18
2023-02-14T12:25:59.184Z,47.99
2023-02-14T12:28:25.569Z,48.35
2023-02-14T12:30:52.019Z,48.18
2023-02-14T12:33:18.472Z,46.95
2023-02-14T12:35:44.844Z,47.67
2023-02-14T12:38:11.230Z,49.16
2023-02-14T12:40:37.599Z,50.22
2023-02-14T12:43:04.049Z,51.93
2023-02-14T12:45:30.441Z,52.36
2023-02-14T12:47:56.844Z,52.46
2023-02-14T12:50:23.206Z,50.16
2023-02-14T12:52:49.570Z,52.58
2023-02-14T12:55:15.992Z,50.59
2023-02-14T12:57:42.375Z,50.59
2023-02-14T13:00:08.766Z,50.83
2023-02-14T13:02:35.207Z,49.66
2023-02-14T13:05:01.654Z,48.06
2023-02-14T13:07:28.061Z,48.22
2023-02-14T13:09:54.638Z,46.45
2023-02-14T13:12:21.010Z,48.05
2023-02-14T13:14:47.378Z,46.91
2023-02-14T13:17:13.734Z,46.19
2023-02-14T13:19:40.103Z,47.47
2023-02-14T13:22:06.473Z,45.39
2023-02-14T13:24:32.874Z,46.09
2023-02-14T13:26:59.271Z,45.78
2023-02-14T13:29:25.647Z,45.70
2023-02-14T13:31:52.157Z,45.60
2023-02-14T13:34:18.554Z,45.10
2023-02-14T13:36:44.946Z,44.58
2023-02-14T13:39:11.365Z,44.85
2023-02-14T13:41:37.749Z,45.13
2023-02-14T13:44:04.156Z,43.59
2023-02-14T13:46:30.624Z,43.32
2023-02-14T13:48:57.129Z,44.67
2023-02-14T13:51:23.506Z,44.56
2023-02-14T13:53:49.878Z,42.69
2023-02-14T13:56:16.320Z,43.45
2023-02-14T13:58:42.752Z,42.19
2023-02-14T14:01:09.196Z,41.70
2023-02-14T14:03:35.748Z,40.25
2023-02-14T14:06:02.616Z,39.24
2023-02-14T14:08:30.582Z,38.93
2023-02-14T14:10:57.104Z,38.09
2023-02-14T14:13:23.525Z,37.56
2023-02-14T14:15:49.944Z,37.16
2023-02-14T14:18:16.339Z,37.23
2023-02-14T14:20:42.709Z,37.00
2023-02-14T14:23:09.093Z,36.59
2023-02-14T14:25:35.469Z,36.51
2023-02-14T14:28:02.105Z,37.15
2023-02-14T14:30:28.557Z,37.50
2023-02-14T14:32:55.067Z,38.26
2023-02-14T14:35:21.509Z,38.78
2023-02-14T14:37:47.922Z,38.00
2023-02-14T14:40:14.309Z,37.12
2023-02-14T14:42:40.739Z,37.30
2023-02-14T14:45:07.123Z,37.37
2023-02-14T14:47:33.494Z,37.16
2023-02-14T14:49:59.903Z,37.88
2023-02-14T14:52:26.298Z,37.19
2023-02-14T14:54:52.722Z,36.94
2023-02-14T14:57:19.135Z,35.07
2023-02-14T14:59:45.526Z,34.05
2023-02-14T15:02:11.894Z,32.86
2023-02-14T15:04:38.311Z,31.47
2023-02-14T15:07:04.755Z,31.29
2023-02-14T15:09:31.161Z,31.07
2023-02-14T15:11:57.521Z,30.92
2023-02-14T15:14:23.919Z,29.33
2023-02-14T15:16:50.314Z,30.36
2023-02-14T15:19:16.731Z,29.37
2023-02-14T15:21:44.698Z,30.40
2023-02-14T15:24:11.212Z,29.91
2023-02-14T15:26:37.603Z,29.46
2023-02-14T15:29:04.033Z,30.65
2023-02-14T15:31:30.555Z,30.74
2023-02-14T15:33:57.029Z,29.44
2023-02-14T15:36:25.597Z,29.72
2023-02-14T15:38:52.007Z,29.46
2023-02-14T15:41:18.425Z,29.30
2023-02-14T15:43:44.801Z,29.33
2023-02-14T15:46:11.205Z,29.92
2023-02-14T15:48:37.636Z,29.00
2023-02-14T15:51:04.050Z,28.47
2023-02-14T15:53:30.420Z,28.50
2023-02-14T15:55:56.802Z,30.01
2023-02-14T15:58:23.204Z,30.64
2023-02-14T16:00:49.594Z,30.69
2023-02-14T16:03:15.995Z,29.89
2023-02-14T16:05:42.399Z,29.02
2023-02-14T16:08:08.836Z,28.41
2023-02-14T16:10:35.237Z,28.64
2023-02-14T16:13:01.616Z,28.76
2023-02-14T16:15:28.035Z,28.58
2023-02-14T16:17:54.427Z,28.46
2023-02-14T16:20:20.813Z,28.44
2023-02-14T16:22:47.210Z,29.21
2023-02-14T16:25:13.602Z,29.54
2023-02-14T16:27:39.989Z,30.01
2023-02-14T16:30:06.473Z,31.51
2023-02-14T16:32:33.043Z,32.27
2023-02-14T16:34:59.550Z,33.14
2023-02-14T16:37:25.926Z,34.12
2023-02-14T16:39:52.308Z,35.28
2023-02-14T16:42:18.681Z,36.27
2023-02-14T16:44:45.054Z,37.41
2023-02-14T16:47:11.448Z,38.42
2023-02-14T16:49:37.826Z,39.61
2023-02-14T16:52:04.215Z,40.48
2023-02-14T16:54:30.633Z,41.06
2023-02-14T16:56:57.062Z,41.41
2023-02-14T16:59:23.458Z,42.12
2023-02-14T17:01:50.141Z,42.69
2023-02-14T17:04:16.577Z,42.97
2023-02-14T17:06:42.960Z,43.35
2023-02-14T17:09:09.398Z,43.66
2023-02-14T17:11:35.803Z,43.87
2023-02-14T17:14:02.221Z,43.86
2023-02-14T17:16:28.608Z,43.73
2023-02-14T17:18:54.986Z,44.07
2023-02-14T17:21:21.384Z,44.26
2023-02-14T17:23:47.840Z,44.52
2023-02-14T17:26:14.283Z,44.57
2023-02-14T17:28:40.806Z,44.74
2023-02-14T17:31:07.604Z,45.32
2023-02-14T17:33:34.321Z,45.69
2023-02-14T17:36:00.753Z,45.78
2023-02-14T17:38:27.174Z,48.21
2023-02-14T17:40:53.563Z,49.04
2023-02-14T17:43:19.988Z,48.73
2023-02-14T17:45:46.398Z,48.62
2023-02-14T17:48:12.776Z,48.39
2023-02-14T17:50:39.174Z,48.17
2023-02-14T17:53:05.581Z,48.62
2023-02-14T17:55:31.989Z,49.42
2023-02-14T17:57:58.368Z,49.40
2023-02-14T18:00:24.797Z,49.20
2023-02-14T18:02:51.214Z,49.93
2023-02-14T18:05:17.635Z,50.28
2023-02-14T18:07:44.054Z,50.32
2023-02-14T18:10:10.471Z,50.93
2023-02-14T18:12:36.942Z,50.47
2023-02-14T18:15:03.333Z,51.03
2023-02-14T18:17:29.690Z,51.05
2023-02-14T18:19:56.131Z,51.02
2023-02-14T18:22:22.498Z,50.90
2023-02-14T18:24:48.889Z,50.82
2023-02-14T18:27:15.276Z,50.45
2023-02-14T18:29:41.660Z,50.64
2023-02-14T18:32:08.096Z,50.89
2023-02-14T18:34:34.527Z,51.01
2023-02-14T18:37:00.906Z,49.99
2023-02-14T18:39:27.294Z,49.75
2023-02-14T18:41:53.781Z,51.07
2023-02-14T18:44:20.208Z,49.70
2023-02-14T18:46:46.568Z,49.68
2023-02-14T18:49:12.972Z,50.24
2023-02-14T18:51:39.400Z,50.26
2023-02-14T18:54:05.871Z,50.44
2023-02-14T18:56:32.245Z,50.48
2023-02-14T18:58:58.654Z,50.54
2023-02-14T19:01:25.129Z,50.73
2023-02-14T19:03:51.549Z,50.87
2023-02-14T19:06:17.961Z,50.88
2023-02-14T19:08:44.352Z,50.81
2023-02-14T19:11:10.795Z,50.29
2023-02-14T19:13:37.185Z,50.31
2023-02-14T19:16:03.589Z,49.01
2023-02-14T19:18:30.039Z,49.85
2023-02-14T19:20:56.421Z,50.08
2023-02-14T19:23:22.848Z,50.02
2023-02-14T19:25:49.379Z,50.19
2023-02-14T19:28:16.236Z,50.26
2023-02-14T19:30:42.649Z,50.25
2023-02-14T19:33:09.049Z,50.29
2023-02-14T19:35:35.434Z,50.17
2023-02-14T19:38:01.819Z,50.32
2023-02-14T19:40:29.063Z,50.24
2023-02-14T19:42:55.460Z,50.19
2023-02-14T19:45:21.859Z,50.33
2023-02-14T19:47:48.406Z,50.12
2023-02-14T19:50:14.840Z,50.39
2023-02-14T19:52:41.332Z,50.39
2023-02-14T19:55:07.733Z,50.42
2023-02-14T19:57:34.121Z,50.70
2023-02-14T20:00:00.580Z,50.46
2023-02-14T20:02:27.011Z,50.08
2023-02-14T20:04:53.487Z,49.25
2023-02-14T20:07:19.880Z,48.90
2023-02-14T20:09:46.252Z,48.92
2023-02-14T20:12:12.656Z,48.66
2023-02-14T20:14:50.824Z,48.80
2023-02-14T20:17:17.501Z,47.90
2023-02-14T20:19:43.879Z,48.34
2023-02-14T20:22:10.280Z,48.81
2023-02-14T20:24:36.660Z,48.60
2023-02-14T20:27:03.073Z,48.57
2023-02-14T20:29:29.485Z,48.52
2023-02-14T20:31:55.934Z,48.29
2023-02-14T20:34:22.381Z,47.88
2023-02-14T20:36:48.819Z,47.97
2023-02-14T20:39:15.213Z,47.75
2023-02-14T20:41:41.605Z,47.71
2023-02-14T20:44:08.039Z,46.96
2023-02-14T20:46:34.475Z,44.54
2023-02-14T20:49:00.870Z,46.51
2023-02-14T20:51:27.284Z,46.63
2023-02-14T20:53:53.680Z,46.53
2023-02-14T20:56:20.109Z,47.04
2023-02-14T20:58:46.504Z,47.79
2023-02-14T21:01:12.941Z,47.75
2023-02-14T21:03:39.399Z,47.95
2023-02-14T21:06:05.795Z,48.51
2023-02-14T21:08:32.197Z,48.63
2023-02-14T21:10:58.820Z,48.45
2023-02-14T21:13:25.324Z,48.50
2023-02-14T21:15:51.734Z,48.16
2023-02-14T21:18:18.122Z,47.76
2023-02-14T21:20:44.549Z,46.99
2023-02-14T21:23:10.923Z,46.59
2023-02-14T21:25:37.389Z,47.68
2023-02-14T21:28:03.775Z,47.38
2023-02-14T21:30:30.299Z,46.80
2023-02-14T21:32:56.699Z,46.99
2023-02-14T21:35:23.073Z,46.96
2023-02-14T21:37:49.478Z,47.09
2023-02-14T21:40:15.850Z,46.45
2023-02-14T21:42:42.261Z,47.06
2023-02-14T21:45:08.626Z,47.32
2023-02-14T21:47:35.052Z,47.47
2023-02-14T21:50:01.426Z,48.08
2023-02-14T21:52:27.804Z,48.13
2023-02-14T21:54:54.175Z,48.35
2023-02-14T21:57:20.529Z,48.08
2023-02-14T21:59:46.925Z,48.43
2023-02-14T22:02:13.317Z,48.65
2023-02-14T22:04:39.733Z,48.63
2023-02-14T22:07:06.113Z,48.82
2023-02-14T22:09:32.558Z,48.89
2023-02-14T22:11:58.932Z,48.89
2023-02-14T22:14:25.333Z,49.05
2023-02-14T22:16:51.746Z,48.93
2023-02-14T22:19:18.148Z,49.38
2023-02-14T22:21:44.563Z,49.49
2023-02-14T22:24:10.923Z,49.84
2023-02-14T22:26:37.317Z,49.98
2023-02-14T22:29:03.737Z,50.09
2023-02-14T22:31:30.220Z,50.17
2023-02-14T22:33:56.656Z,50.17
2023-02-14T22:36:23.064Z,50.10
2023-02-14T22:38:49.505Z,49.64
2023-02-14T22:41:15.878Z,49.87
2023-02-14T22:43:42.261Z,49.71
2023-02-14T22:46:08.660Z,49.78
2023-02-14T22:48:35.045Z,50.25
2023-02-14T22:51:01.428Z,50.57
2023-02-14T22:53:27.859Z,50.37
2023-02-14T22:55:54.250Z,50.69
2023-02-14T22:58:20.670Z,50.94
2023-02-14T23:00:47.100Z,50.31
2023-02-14T23:03:13.498Z,51.08
2023-02-14T23:05:39.891Z,51.05
2023-02-14T23:08:06.244Z,51.11
2023-02-14T23:10:32.806Z,51.15
2023-02-14T23:12:59.181Z,51.26
2023-02-14T23:15:25.549Z,50.88
2023-02-14T23:17:51.943Z,51.45
2023-02-14T23:20:18.300Z,50.91
2023-02-14T23:22:44.709Z,50.99
2023-02-14T23:25:11.139Z,50.77
2023-02-14T23:27:37.553Z,50.72
2023-02-14T23:30:04.013Z,50.60
2023-02-14T23:32:30.427Z,50.64
2023-02-14T23:34:56.928Z,50.78
2023-02-14T23:37:23.305Z,50.69
2023-02-14T23:39:49.744Z,50.32
2023-02-14T23:42:16.156Z,50.27
2023-02-14T23:44:42.566Z,50.50
2023-02-14T23:47:08.953Z,50.70
2023-02-14T23:49:35.329Z,50.71
2023-02-14T23:52:01.751Z,51.01
2023-02-14T23:54:28.126Z,51.19
2023-02-14T23:56:54.523Z,51.43
2023-02-14T23:59:20.907Z,51.68
